Time,TemperatureF,DewpointF,PressureIn,WindDirection,WindDirectionDegrees,WindSpeedMPH,WindSpeedGustMPH,Humidity,HourlyPrecipIn,Conditions,Clouds,dailyrainin,SoftwareType,DateUTC
2013-05-09 00:00:00,66.8,61.8,30.06,NW,312,0.0,12.0,84,0.00,,,0.00,Wunderground v.1.15,2013-05-09 04:00:00,
2013-05-09 00:05:00,66.6,61.6,30.06,NW,312,0.0,12.0,84,0.00,,,0.00,Wunderground v.1.15,2013-05-09 04:05:00,
2013-05-09 00:10:00,66.4,61.4,30.06,NW,312,0.0,0.0,84,0.00,,,0.00,Wunderground v.1.15,2013-05-09 04:10:00,
2013-05-09 00:20:00,66.4,61.4,30.06,NW,312,0.0,0.0,84,0.00,,,0.00,Wunderground v.1.15,2013-05-09 04:20:00,
2013-05-09 00:30:00,66.9,61.9,30.06,NW,312,0.0,0.0,84,0.00,,,0.00,Wunderground v.1.15,2013-05-09 04:30:00,
2013-05-09 00:35:00,67.1,61.8,30.06,NW,312,0.0,0.0,83,0.00,,,0.00,Wunderground v.1.15,2013-05-09 04:35:00,
2013-05-09 00:45:00,67.1,61.4,30.05,NW,312,0.0,0.0,82,0.00,,,0.00,Wunderground v.1.15,2013-05-09 04:45:00,
2013-05-09 00:50:00,66.8,61.1,30.05,NW,312,0.0,0.0,82,0.00,,,0.00,Wunderground v.1.15,2013-05-09 04:50:00,
2013-05-09 01:00:00,66.6,61.3,30.05,NW,312,0.0,0.0,83,0.00,,,0.00,Wunderground v.1.15,2013-05-09 05:00:00,
2013-05-09 01:10:00,66.1,61.1,30.05,NW,312,0.0,0.0,84,0.00,,,0.00,Wunderground v.1.15,2013-05-09 05:10:00,
2013-05-09 01:20:00,65.6,61.0,30.05,NW,312,0.0,0.0,85,0.00,,,0.00,Wunderground v.1.15,2013-05-09 05:20:00,
2013-05-09 01:30:00,65.3,60.7,30.04,NW,312,0.0,0.0,85,0.00,,,0.00,Wunderground v.1.15,2013-05-09 05:30:00,
2013-05-09 01:40:00,65.0,60.7,30.04,NW,312,0.0,0.0,86,0.00,,,0.00,Wunderground v.1.15,2013-05-09 05:40:00,
2013-05-09 01:50:00,64.3,60.3,30.03,NW,312,0.0,0.0,87,0.00,,,0.00,Wunderground v.1.15,2013-05-09 05:50:00,
2013-05-09 01:55:00,64.2,60.6,30.03,NW,312,0.0,0.0,88,0.00,,,0.00,Wunderground v.1.15,2013-05-09 05:55:00,
2013-05-09 02:05:00,64.0,60.4,30.03,NW,312,0.0,0.0,88,0.00,,,0.00,Wunderground v.1.15,2013-05-09 06:05:00,
2013-05-09 02:15:00,63.7,60.1,30.03,NW,312,0.0,0.0,88,0.00,,,0.00,Wunderground v.1.15,2013-05-09 06:15:00,
2013-05-09 02:20:00,63.7,60.4,30.03,NW,312,0.0,0.0,89,0.00,,,0.00,Wunderground v.1.15,2013-05-09 06:20:00,
2013-05-09 02:30:00,63.5,60.2,30.02,NW,312,0.0,0.0,89,0.00,,,0.00,Wunderground v.1.15,2013-05-09 06:30:00,
2013-05-09 02:40:00,63.5,60.2,30.02,NW,312,0.0,0.0,89,0.00,,,0.00,Wunderground v.1.15,2013-05-09 06:40:00,
2013-05-09 02:50:00,63.5,60.2,30.02,NW,312,0.0,0.0,89,0.00,,,0.00,Wunderground v.1.15,2013-05-09 06:50:00,
2013-05-09 03:00:00,63.5,60.2,30.01,NW,316,0.0,0.0,89,0.00,,,0.00,Wunderground v.1.15,2013-05-09 07:00:00,
2013-05-09 03:10:00,64.0,61.0,30.01,NNW,333,0.0,3.0,90,0.00,,,0.00,Wunderground v.1.15,2013-05-09 07:10:00,
2013-05-09 03:20:00,65.0,62.0,30.01,NNW,342,0.0,0.0,90,0.00,,,0.00,Wunderground v.1.15,2013-05-09 07:20:00,
2013-05-09 03:30:00,65.6,61.9,30.00,North,356,0.0,0.0,88,0.00,,,0.00,Wunderground v.1.15,2013-05-09 07:30:00,
2013-05-09 03:40:00,65.8,62.1,30.00,North,356,0.0,0.0,88,0.00,,,0.00,Wunderground v.1.15,2013-05-09 07:40:00,
2013-05-09 03:50:00,66.1,62.4,30.00,North,356,0.0,0.0,88,0.00,,,0.00,Wunderground v.1.15,2013-05-09 07:50:00,
2013-05-09 04:00:00,66.6,62.6,30.00,NNW,340,1.0,3.0,87,0.00,,,0.00,Wunderground v.1.15,2013-05-09 08:00:00,
2013-05-09 04:10:00,67.1,62.4,30.00,NNW,331,1.0,1.0,85,0.00,,,0.00,Wunderground v.1.15,2013-05-09 08:10:00,
2013-05-09 04:20:00,67.6,62.6,30.00,NNW,337,0.0,0.0,84,0.00,,,0.00,Wunderground v.1.15,2013-05-09 08:20:00,
2013-05-09 04:30:00,68.1,62.7,30.00,NNW,338,1.0,1.0,83,0.00,,,0.00,Wunderground v.1.15,2013-05-09 08:30:00,
2013-05-09 04:40:00,68.3,62.9,30.00,NNW,338,0.0,0.0,83,0.00,,,0.00,Wunderground v.1.15,2013-05-09 08:40:00,
2013-05-09 04:50:00,68.3,62.9,30.00,NNW,340,0.0,0.0,83,0.00,,,0.00,Wunderground v.1.15,2013-05-09 08:50:00,
2013-05-09 04:55:00,68.3,63.3,30.00,NNW,340,0.0,0.0,84,0.00,,,0.00,Wunderground v.1.15,2013-05-09 08:55:00,
2013-05-09 05:05:00,68.4,63.4,30.00,NNW,329,1.0,5.0,84,0.00,,,0.00,Wunderground v.1.15,2013-05-09 09:05:00,
2013-05-09 05:15:00,68.6,63.2,30.00,NNW,345,2.0,6.0,83,0.00,,,0.00,Wunderground v.1.15,2013-05-09 09:15:00,
2013-05-09 05:20:00,68.6,63.2,30.00,NNW,333,1.0,1.0,83,0.00,,,0.00,Wunderground v.1.15,2013-05-09 09:20:00,
2013-05-09 05:30:00,68.3,62.9,30.00,NNW,340,0.0,0.0,83,0.00,,,0.00,Wunderground v.1.15,2013-05-09 09:30:00,
2013-05-09 05:40:00,66.9,61.9,30.00,East,88,0.0,0.0,84,0.00,,,0.00,Wunderground v.1.15,2013-05-09 09:40:00,
2013-05-09 05:50:00,65.8,61.5,30.01,East,88,0.0,0.0,86,0.00,,,0.00,Wunderground v.1.15,2013-05-09 09:50:00,
2013-05-09 06:00:00,64.7,61.1,30.01,East,88,0.0,0.0,88,0.00,,,0.00,Wunderground v.1.15,2013-05-09 10:00:00,
2013-05-09 06:05:00,64.3,60.7,30.01,East,88,0.0,0.0,88,0.00,,,0.00,Wunderground v.1.15,2013-05-09 10:05:00,
2013-05-09 06:10:00,64.0,60.7,30.01,East,88,0.0,0.0,89,0.00,,,0.00,Wunderground v.1.15,2013-05-09 10:10:00,
2013-05-09 06:20:00,63.5,60.5,30.01,East,89,0.0,0.0,90,0.00,,,0.00,Wunderground v.1.15,2013-05-09 10:20:00,
2013-05-09 06:30:00,63.4,60.4,30.02,East,88,0.0,0.0,90,0.00,,,0.00,Wunderground v.1.15,2013-05-09 10:30:00,
2013-05-09 06:40:00,63.2,60.5,30.02,East,88,0.0,0.0,91,0.00,,,0.00,Wunderground v.1.15,2013-05-09 10:40:00,
2013-05-09 06:50:00,63.2,60.5,30.02,East,89,0.0,0.0,91,0.00,,,0.00,Wunderground v.1.15,2013-05-09 10:50:00,
2013-05-09 07:00:00,63.1,60.7,30.03,East,89,0.0,0.0,92,0.00,,,0.00,Wunderground v.1.15,2013-05-09 11:00:00,
2013-05-09 07:10:00,63.1,60.7,30.03,East,89,0.0,2.0,92,0.00,,,0.00,Wunderground v.1.15,2013-05-09 11:10:00,
2013-05-09 07:20:00,63.2,60.8,30.03,East,89,0.0,2.0,92,0.00,,,0.00,Wunderground v.1.15,2013-05-09 11:20:00,
2013-05-09 07:25:00,63.5,61.4,30.03,East,89,0.0,2.0,93,0.00,,,0.00,Wunderground v.1.15,2013-05-09 11:25:00,
2013-05-09 07:30:00,63.7,61.6,30.03,East,89,0.0,2.0,93,0.00,,,0.00,Wunderground v.1.15,2013-05-09 11:30:00,
2013-05-09 07:40:00,64.2,62.1,30.03,East,89,0.0,2.0,93,0.00,,,0.00,Wunderground v.1.15,2013-05-09 11:40:00,
2013-05-09 07:45:00,64.5,62.4,30.04,East,89,0.0,2.0,93,0.00,,,0.00,Wunderground v.1.15,2013-05-09 11:45:00,
2013-05-09 07:55:00,65.2,62.8,30.04,East,89,0.0,2.0,92,0.00,,,0.00,Wunderground v.1.15,2013-05-09 11:55:00,
2013-05-09 08:00:00,65.6,63.2,30.05,East,89,0.0,2.0,92,0.00,,,0.00,Wunderground v.1.15,2013-05-09 12:00:00,
2013-05-09 08:10:00,66.6,63.9,30.05,East,89,0.0,2.0,91,0.00,,,0.00,Wunderground v.1.15,2013-05-09 12:10:00,
2013-05-09 08:20:00,67.6,63.9,30.05,East,89,0.0,2.0,88,0.00,,,0.00,Wunderground v.1.15,2013-05-09 12:20:00,
2013-05-09 08:30:00,68.8,64.4,30.05,East,89,0.0,2.0,86,0.00,,,0.00,Wunderground v.1.15,2013-05-09 12:30:00,
2013-05-09 08:40:00,69.4,64.4,30.05,East,88,0.0,2.0,84,0.00,,,0.00,Wunderground v.1.15,2013-05-09 12:40:00,
2013-05-09 08:50:00,70.8,65.0,30.06,East,88,0.0,2.0,82,0.00,,,0.00,Wunderground v.1.15,2013-05-09 12:50:00,
2013-05-09 09:00:00,72.0,64.4,30.06,East,88,0.0,2.0,77,0.00,,,0.00,Wunderground v.1.15,2013-05-09 13:00:00,
2013-05-09 09:10:00,72.8,64.4,30.06,ENE,68,1.0,1.0,75,0.00,,,0.00,Wunderground v.1.15,2013-05-09 13:10:00,
2013-05-09 09:20:00,73.3,64.1,30.06,NE,39,2.0,10.0,73,0.00,,,0.00,Wunderground v.1.15,2013-05-09 13:20:00,
2013-05-09 09:30:00,73.5,64.3,30.06,NE,36,1.0,1.0,73,0.00,,,0.00,Wunderground v.1.15,2013-05-09 13:30:00,
2013-05-09 09:40:00,73.9,63.9,30.06,North,1,1.0,1.0,71,0.00,,,0.00,Wunderground v.1.15,2013-05-09 13:40:00,
2013-05-09 09:50:00,74.0,64.0,30.06,ENE,71,1.0,1.0,71,0.00,,,0.00,Wunderground v.1.15,2013-05-09 13:50:00,
2013-05-09 10:00:00,74.4,62.3,30.06,NE,41,1.0,1.0,66,0.00,,,0.00,Wunderground v.1.15,2013-05-09 14:00:00,
2013-05-09 10:10:00,75.1,62.1,30.06,NE,37,0.0,0.0,64,0.00,,,0.00,Wunderground v.1.15,2013-05-09 14:10:00,
2013-05-09 10:15:00,75.3,61.4,30.07,NNE,15,2.0,2.0,62,0.00,,,0.00,Wunderground v.1.15,2013-05-09 14:15:00,
2013-05-09 10:25:00,75.8,61.8,30.07,North,354,1.0,2.0,62,0.00,,,0.00,Wunderground v.1.15,2013-05-09 14:25:00,
2013-05-09 10:35:00,76.5,61.1,30.06,ENE,58,1.0,4.0,59,0.00,,,0.00,Wunderground v.1.15,2013-05-09 14:35:00,
2013-05-09 10:40:00,76.1,59.3,30.06,ENE,65,2.0,2.0,56,0.00,,,0.00,Wunderground v.1.15,2013-05-09 14:40:00,
2013-05-09 10:50:00,77.2,61.3,30.06,East,98,1.0,1.0,58,0.00,,,0.00,Wunderground v.1.15,2013-05-09 14:50:00,
2013-05-09 11:00:00,77.4,61.0,30.06,ESE,109,1.0,1.0,57,0.00,,,0.00,Wunderground v.1.15,2013-05-09 15:00:00,
2013-05-09 11:10:00,77.7,59.7,30.06,ESE,120,0.0,0.0,54,0.00,,,0.00,Wunderground v.1.15,2013-05-09 15:10:00,
2013-05-09 11:20:00,78.1,60.6,30.06,NE,37,0.0,0.0,55,0.00,,,0.00,Wunderground v.1.15,2013-05-09 15:20:00,
2013-05-09 11:25:00,77.7,61.3,30.06,NW,323,0.0,0.0,57,0.00,,,0.00,Wunderground v.1.15,2013-05-09 15:25:00,
2013-05-09 11:30:00,77.6,63.1,30.06,WNW,284,2.0,2.0,61,0.00,,,0.00,Wunderground v.1.15,2013-05-09 15:30:00,
2013-05-09 11:40:00,77.0,64.3,30.06,NW,307,8.0,13.0,65,0.00,,,0.00,Wunderground v.1.15,2013-05-09 15:40:00,
2013-05-09 11:50:00,78.8,63.3,30.06,NNE,21,1.0,1.0,59,0.00,,,0.00,Wunderground v.1.15,2013-05-09 15:50:00,
2013-05-09 12:00:00,78.6,62.6,30.06,NNW,338,5.0,6.0,58,0.00,,,0.00,Wunderground v.1.15,2013-05-09 16:00:00,
2013-05-09 12:10:00,76.7,62.7,30.06,West,267,9.0,9.0,62,0.00,,,0.00,Wunderground v.1.15,2013-05-09 16:10:00,
2013-05-09 12:15:00,76.8,60.9,30.06,NNE,15,9.0,9.0,58,0.00,,,0.00,Wunderground v.1.15,2013-05-09 16:15:00,
2013-05-09 12:20:00,77.6,63.1,30.06,NW,326,7.0,11.0,61,0.00,,,0.00,Wunderground v.1.15,2013-05-09 16:20:00,
2013-05-09 12:30:00,77.4,62.4,30.06,NW,326,12.0,12.0,60,0.00,,,0.00,Wunderground v.1.15,2013-05-09 16:30:00,
2013-05-09 12:40:00,77.9,61.9,30.06,NNW,328,12.0,15.0,58,0.00,,,0.00,Wunderground v.1.15,2013-05-09 16:40:00,
2013-05-09 12:50:00,77.9,62.4,30.06,North,1,12.0,12.0,59,0.00,,,0.00,Wunderground v.1.15,2013-05-09 16:50:00,
2013-05-09 12:55:00,78.5,62.0,30.06,NNW,328,8.0,12.0,57,0.00,,,0.00,Wunderground v.1.15,2013-05-09 16:55:00,
2013-05-09 13:05:00,79.0,62.5,30.06,NW,323,8.0,25.0,57,0.00,,,0.00,Wunderground v.1.15,2013-05-09 17:05:00,
2013-05-09 13:15:00,78.8,61.3,30.05,NNW,330,9.0,16.0,55,0.00,,,0.00,Wunderground v.1.15,2013-05-09 17:15:00,
2013-05-09 13:20:00,78.8,61.8,30.05,NW,309,7.0,25.0,56,0.00,,,0.00,Wunderground v.1.15,2013-05-09 17:20:00,
2013-05-09 13:30:00,78.6,60.6,30.05,NW,314,13.0,13.0,54,0.00,,,0.00,Wunderground v.1.15,2013-05-09 17:30:00,
2013-05-09 13:35:00,78.6,60.0,30.05,West,276,12.0,25.0,53,0.00,,,0.00,Wunderground v.1.15,2013-05-09 17:35:00,
2013-05-09 13:50:00,79.9,58.5,30.05,NW,317,7.0,13.0,48,0.00,,,0.00,Wunderground v.1.15,2013-05-09 17:50:00,
2013-05-09 13:55:00,79.4,59.1,30.05,West,268,10.0,13.0,50,0.00,,,0.00,Wunderground v.1.15,2013-05-09 17:55:00,
2013-05-09 14:05:00,79.6,58.2,30.05,WNW,302,11.0,15.0,48,0.00,,,0.00,Wunderground v.1.15,2013-05-09 18:05:00,
2013-05-09 14:15:00,79.6,58.2,30.04,WNW,285,13.0,19.0,48,0.00,,,0.00,Wunderground v.1.15,2013-05-09 18:15:00,
2013-05-09 14:20:00,79.8,58.4,30.04,West,281,11.0,11.0,48,0.00,,,0.00,Wunderground v.1.15,2013-05-09 18:20:00,
2013-05-09 14:30:00,80.1,56.8,30.03,NW,310,10.0,14.0,45,0.00,,,0.00,Wunderground v.1.15,2013-05-09 18:30:00,
2013-05-09 14:40:00,80.1,56.2,30.03,NW,323,13.0,13.0,44,0.00,,,0.00,Wunderground v.1.15,2013-05-09 18:40:00,
2013-05-09 14:50:00,80.1,56.2,30.03,NW,304,15.0,18.0,44,0.00,,,0.00,Wunderground v.1.15,2013-05-09 18:50:00,
2013-05-09 14:55:00,80.3,57.6,30.03,NW,307,13.0,18.0,46,0.00,,,0.00,Wunderground v.1.15,2013-05-09 18:55:00,
2013-05-09 15:05:00,80.3,57.6,30.03,NW,304,14.0,18.0,46,0.00,,,0.00,Wunderground v.1.15,2013-05-09 19:05:00,
2013-05-09 15:15:00,80.5,57.2,30.02,WNW,289,13.0,18.0,45,0.00,,,0.00,Wunderground v.1.15,2013-05-09 19:15:00,
2013-05-09 15:20:00,80.3,57.6,30.02,NNW,330,12.0,12.0,46,0.00,,,0.00,Wunderground v.1.15,2013-05-09 19:20:00,
2013-05-09 15:30:00,80.5,59.0,30.02,NW,310,15.0,15.0,48,0.00,,,0.00,Wunderground v.1.15,2013-05-09 19:30:00,
2013-05-09 15:35:00,81.1,59.0,30.02,WNW,297,13.0,16.0,47,0.00,,,0.00,Wunderground v.1.15,2013-05-09 19:35:00,
2013-05-09 15:45:00,80.7,59.2,30.02,NW,314,16.0,19.0,48,0.00,,,0.00,Wunderground v.1.15,2013-05-09 19:45:00,
2013-05-09 15:55:00,80.3,63.7,30.02,WNW,288,20.0,23.0,57,0.00,,,0.00,Wunderground v.1.15,2013-05-09 19:55:00,
2013-05-09 16:00:00,79.8,60.6,30.02,West,267,21.0,21.0,52,0.00,,,0.00,Wunderground v.1.15,2013-05-09 20:00:00,
2013-05-09 16:10:00,79.4,61.3,30.02,WNW,293,19.0,19.0,54,0.00,,,0.00,Wunderground v.1.15,2013-05-09 20:10:00,
2013-05-09 16:20:00,79.4,65.2,30.01,West,267,18.0,24.0,62,0.00,,,0.00,Wunderground v.1.15,2013-05-09 20:20:00,
2013-05-09 16:25:00,79.0,65.3,30.01,West,264,18.0,24.0,63,0.00,,,0.00,Wunderground v.1.15,2013-05-09 20:25:00,
2013-05-09 16:35:00,77.9,64.3,30.02,West,268,22.0,30.0,63,0.00,,,0.00,Wunderground v.1.15,2013-05-09 20:35:00,
2013-05-09 16:45:00,77.7,64.5,30.02,NW,306,20.0,24.0,64,0.00,,,0.00,Wunderground v.1.15,2013-05-09 20:45:00,
2013-05-09 16:55:00,77.6,64.5,30.02,West,281,20.0,27.0,64,0.00,,,0.00,Wunderground v.1.15,2013-05-09 20:55:00,
2013-05-09 17:00:00,77.6,64.0,30.01,West,278,20.0,24.0,63,0.00,,,0.00,Wunderground v.1.15,2013-05-09 21:00:00,
2013-05-09 17:10:00,77.7,64.5,30.01,West,268,18.0,18.0,64,0.00,,,0.00,Wunderground v.1.15,2013-05-09 21:10:00,
2013-05-09 17:15:00,77.6,64.9,30.01,WNW,298,17.0,22.0,65,0.00,,,0.00,Wunderground v.1.15,2013-05-09 21:15:00,
2013-05-09 17:25:00,77.7,64.5,30.01,WSW,255,17.0,24.0,64,0.00,,,0.00,Wunderground v.1.15,2013-05-09 21:25:00,
2013-05-09 17:35:00,77.2,64.1,30.01,West,259,17.0,24.0,64,0.00,,,0.00,Wunderground v.1.15,2013-05-09 21:35:00,
2013-05-09 17:40:00,77.7,64.5,30.01,WNW,301,15.0,15.0,64,0.00,,,0.00,Wunderground v.1.15,2013-05-09 21:40:00,
2013-05-09 17:50:00,77.4,64.3,30.01,West,280,18.0,24.0,64,0.00,,,0.00,Wunderground v.1.15,2013-05-09 21:50:00,
2013-05-09 17:55:00,77.2,64.5,30.01,NW,304,17.0,24.0,65,0.00,,,0.00,Wunderground v.1.15,2013-05-09 21:55:00,
2013-05-09 18:05:00,77.2,64.1,30.00,WNW,283,14.0,24.0,64,0.00,,,0.00,Wunderground v.1.15,2013-05-09 22:05:00,
2013-05-09 18:15:00,77.6,64.5,30.00,WNW,300,12.0,16.0,64,0.00,,,0.00,Wunderground v.1.15,2013-05-09 22:15:00,
2013-05-09 18:20:00,77.6,64.5,30.00,WNW,285,11.0,24.0,64,0.00,,,0.00,Wunderground v.1.15,2013-05-09 22:20:00,
2013-05-09 18:30:00,76.8,63.7,30.00,WNW,285,16.0,16.0,64,0.00,,,0.00,Wunderground v.1.15,2013-05-09 22:30:00,
2013-05-09 18:40:00,76.8,64.6,30.00,WNW,300,15.0,15.0,66,0.00,,,0.00,Wunderground v.1.15,2013-05-09 22:40:00,
2013-05-09 18:50:00,76.7,64.0,30.00,West,272,14.0,14.0,65,0.00,,,0.00,Wunderground v.1.15,2013-05-09 22:50:00,
2013-05-09 18:55:00,76.7,64.0,30.00,NW,304,17.0,17.0,65,0.00,,,0.00,Wunderground v.1.15,2013-05-09 22:55:00,
2013-05-09 19:05:00,76.1,63.5,30.00,NW,324,15.0,23.0,65,0.00,,,0.00,Wunderground v.1.15,2013-05-09 23:05:00,
2013-05-09 19:10:00,76.1,64.8,30.00,WNW,296,13.0,23.0,68,0.00,,,0.00,Wunderground v.1.15,2013-05-09 23:10:00,
2013-05-09 19:20:00,76.1,64.3,30.00,NNW,329,12.0,23.0,67,0.00,,,0.00,Wunderground v.1.15,2013-05-09 23:20:00,
2013-05-09 19:30:00,75.6,64.7,30.00,WNW,288,16.0,16.0,69,0.00,,,0.00,Wunderground v.1.15,2013-05-09 23:30:00,
2013-05-09 19:35:00,75.4,64.9,30.00,West,280,17.0,17.0,70,0.00,,,0.00,Wunderground v.1.15,2013-05-09 23:35:00,
2013-05-09 19:45:00,75.3,65.2,30.00,NW,311,11.0,23.0,71,0.00,,,0.00,Wunderground v.1.15,2013-05-09 23:45:00,
2013-05-09 19:55:00,74.9,65.3,30.00,WNW,302,10.0,23.0,72,0.00,,,0.00,Wunderground v.1.15,2013-05-09 23:55:00,
2013-05-09 20:00:00,74.7,65.1,30.00,NW,326,10.0,23.0,72,0.00,,,0.00,Wunderground v.1.15,2013-05-10 00:00:00,
2013-05-09 20:10:00,74.6,65.4,30.00,NW,309,12.0,12.0,73,0.00,,,0.00,Wunderground v.1.15,2013-05-10 00:10:00,
2013-05-09 20:20:00,74.2,65.4,30.01,WNW,301,11.0,23.0,74,0.00,,,0.00,Wunderground v.1.15,2013-05-10 00:20:00,
2013-05-09 20:25:00,74.2,65.8,30.01,NW,307,13.0,23.0,75,0.00,,,0.00,Wunderground v.1.15,2013-05-10 00:25:00,
2013-05-09 20:35:00,74.0,66.0,30.01,NNW,344,9.0,23.0,76,0.00,,,0.00,Wunderground v.1.15,2013-05-10 00:35:00,
2013-05-09 20:40:00,73.9,65.5,30.01,NNW,328,8.0,23.0,75,0.00,,,0.00,Wunderground v.1.15,2013-05-10 00:40:00,
2013-05-09 20:50:00,73.9,65.9,30.01,NW,320,8.0,23.0,76,0.00,,,0.00,Wunderground v.1.15,2013-05-10 00:50:00,
2013-05-09 21:00:00,73.9,66.2,30.01,NW,317,7.0,7.0,77,0.00,,,0.00,Wunderground v.1.15,2013-05-10 01:00:00,
2013-05-09 21:05:00,73.7,66.0,30.01,NNW,333,2.0,23.0,77,0.00,,,0.00,Wunderground v.1.15,2013-05-10 01:05:00,
2013-05-09 21:15:00,73.5,65.8,30.01,North,353,0.0,0.0,77,0.00,,,0.00,Wunderground v.1.15,2013-05-10 01:15:00,
2013-05-09 21:25:00,73.3,65.7,30.01,North,356,0.0,0.0,77,0.00,,,0.00,Wunderground v.1.15,2013-05-10 01:25:00,
2013-05-09 21:30:00,73.2,65.6,30.01,North,356,0.0,0.0,77,0.00,,,0.00,Wunderground v.1.15,2013-05-10 01:30:00,
2013-05-09 21:40:00,73.0,65.4,30.01,North,356,0.0,0.0,77,0.00,,,0.00,Wunderground v.1.15,2013-05-10 01:40:00,
2013-05-09 21:45:00,72.8,65.5,30.01,North,356,0.0,0.0,78,0.00,,,0.00,Wunderground v.1.15,2013-05-10 01:45:00,
2013-05-09 21:55:00,72.7,65.4,30.01,North,356,0.0,0.0,78,0.00,,,0.00,Wunderground v.1.15,2013-05-10 01:55:00,
2013-05-09 22:05:00,72.0,65.1,30.02,North,356,0.0,16.0,79,0.00,,,0.00,Wunderground v.1.15,2013-05-10 02:05:00,
2013-05-09 22:10:00,71.8,64.9,30.02,North,358,0.0,16.0,79,0.00,,,0.00,Wunderground v.1.15,2013-05-10 02:10:00,
2013-05-09 22:20:00,71.3,64.8,30.02,North,358,0.0,16.0,80,0.00,,,0.00,Wunderground v.1.15,2013-05-10 02:20:00,
2013-05-09 22:25:00,71.1,64.6,30.02,North,358,0.0,16.0,80,0.00,,,0.00,Wunderground v.1.15,2013-05-10 02:25:00,
2013-05-09 22:35:00,70.6,64.5,30.03,North,358,0.0,16.0,81,0.00,,,0.00,Wunderground v.1.15,2013-05-10 02:35:00,
2013-05-09 22:45:00,70.4,64.6,30.03,North,358,0.0,16.0,82,0.00,,,0.00,Wunderground v.1.15,2013-05-10 02:45:00,
2013-05-09 22:50:00,70.3,64.5,30.03,North,358,0.0,16.0,82,0.00,,,0.00,Wunderground v.1.15,2013-05-10 02:50:00,
2013-05-09 23:00:00,69.9,64.2,30.04,North,358,0.0,16.0,82,0.00,,,0.00,Wunderground v.1.15,2013-05-10 03:00:00,
2013-05-09 23:05:00,69.9,64.5,30.04,North,358,0.0,16.0,83,0.00,,,0.00,Wunderground v.1.15,2013-05-10 03:05:00,
2013-05-09 23:15:00,69.4,64.7,30.04,North,358,0.0,16.0,85,0.00,,,0.00,Wunderground v.1.15,2013-05-10 03:15:00,
2013-05-09 23:25:00,69.3,64.6,30.04,North,358,0.0,16.0,85,0.00,,,0.00,Wunderground v.1.15,2013-05-10 03:25:00,
2013-05-09 23:30:00,69.1,64.4,30.05,North,358,0.0,16.0,85,0.00,,,0.00,Wunderground v.1.15,2013-05-10 03:30:00,
2013-05-09 23:40:00,68.9,64.5,30.05,North,358,0.0,16.0,86,0.00,,,0.00,Wunderground v.1.15,2013-05-10 03:40:00,
2013-05-09 23:45:00,68.8,64.4,30.05,North,358,0.0,16.0,86,0.00,,,0.00,Wunderground v.1.15,2013-05-10 03:45:00,
2013-05-09 23:55:00,68.6,64.2,30.05,North,358,0.0,16.0,86,0.00,,,0.00,Wunderground v.1.15,2013-05-10 03:55:00,